sensor_id;sensor_type;location;lat;lon;timestamp;temperature;humidity
64032;DHT22;50278;47.796;11.968;2023-03-12T00:00:28;-0.91;80.25
64032;DHT22;50278;47.796;11.968;2023-03-12T00:02:54;-0.94;76.02
64032;DHT22;50278;47.796;11.968;2023-03-12T00:05:20;-1.04;80.35
64032;DHT22;50278;47.796;11.968;2023-03-12T00:07:47;-1.10;84.08
64032;DHT22;50278;47.796;11.968;2023-03-12T00:10:12;-1.06;83.29
64032;DHT22;50278;47.796;11.968;2023-03-12T00:12:38;-0.97;78.67
64032;DHT22;50278;47.796;11.968;2023-03-12T00:15:04;-0.97;79.11
64032;DHT22;50278;47.796;11.968;2023-03-12T00:17:30;-0.96;79.81
64032;DHT22;50278;47.796;11.968;2023-03-12T00:19:55;-0.91;79.44
64032;DHT22;50278;47.796;11.968;2023-03-12T00:22:21;-0.90;80.44
64032;DHT22;50278;47.796;11.968;2023-03-12T00:24:54;-0.89;80.50
64032;DHT22;50278;47.796;11.968;2023-03-12T00:27:21;-0.84;80.23
64032;DHT22;50278;47.796;11.968;2023-03-12T00:29:47;-0.84;83.13
64032;DHT22;50278;47.796;11.968;2023-03-12T00:32:13;-0.89;82.51
64032;DHT22;50278;47.796;11.968;2023-03-12T00:34:39;-0.86;82.76
64032;DHT22;50278;47.796;11.968;2023-03-12T00:37:05;-0.87;81.78
64032;DHT22;50278;47.796;11.968;2023-03-12T00:39:33;-0.89;80.82
64032;DHT22;50278;47.796;11.968;2023-03-12T00:41:58;-0.90;81.12
64032;DHT22;50278;47.796;11.968;2023-03-12T00:44:24;-0.89;77.66
64032;DHT22;50278;47.796;11.968;2023-03-12T00:46:49;-0.87;77.77
64032;DHT22;50278;47.796;11.968;2023-03-12T00:49:15;-0.88;79.20
64032;DHT22;50278;47.796;11.968;2023-03-12T00:51:40;-0.90;80.00
64032;DHT22;50278;47.796;11.968;2023-03-12T00:54:06;-0.88;79.75
64032;DHT22;50278;47.796;11.968;2023-03-12T00:56:31;-0.89;78.92
64032;DHT22;50278;47.796;11.968;2023-03-12T00:58:57;-0.86;79.72
64032;DHT22;50278;47.796;11.968;2023-03-12T01:01:23;-0.88;81.05
64032;DHT22;50278;47.796;11.968;2023-03-12T01:03:49;-0.84;82.85
64032;DHT22;50278;47.796;11.968;2023-03-12T01:06:16;-0.77;81.97
64032;DHT22;50278;47.796;11.968;2023-03-12T01:08:42;-0.77;81.54
64032;DHT22;50278;47.796;11.968;2023-03-12T01:11:15;-0.73;79.24
64032;DHT22;50278;47.796;11.968;2023-03-12T01:13:41;-0.64;76.87
64032;DHT22;50278;47.796;11.968;2023-03-12T01:16:06;-0.56;75.31
64032;DHT22;50278;47.796;11.968;2023-03-12T01:18:32;-0.49;74.71
64032;DHT22;50278;47.796;11.968;2023-03-12T01:20:58;-0.47;75.62
64032;DHT22;50278;47.796;11.968;2023-03-12T01:23:24;-0.40;83.71
64032;DHT22;50278;47.796;11.968;2023-03-12T01:25:49;-0.41;85.92
64032;DHT22;50278;47.796;11.968;2023-03-12T01:28:17;-0.38;77.27
64032;DHT22;50278;47.796;11.968;2023-03-12T01:30:42;-0.32;78.04
64032;DHT22;50278;47.796;11.968;2023-03-12T01:33:08;-0.27;81.09
64032;DHT22;50278;47.796;11.968;2023-03-12T01:35:36;-0.25;81.22
64032;DHT22;50278;47.796;11.968;2023-03-12T01:38:01;-0.23;80.69
64032;DHT22;50278;47.796;11.968;2023-03-12T01:40:27;-0.28;79.62
64032;DHT22;50278;47.796;11.968;2023-03-12T01:42:56;-0.28;80.63
64032;DHT22;50278;47.796;11.968;2023-03-12T01:48:17;-0.31;84.40
64032;DHT22;50278;47.796;11.968;2023-03-12T01:50:44;-0.32;85.63
64032;DHT22;50278;47.796;11.968;2023-03-12T01:53:10;-0.27;86.32
64032;DHT22;50278;47.796;11.968;2023-03-12T01:55:36;-0.19;85.39
64032;DHT22;50278;47.796;11.968;2023-03-12T01:58:01;-0.21;82.74
64032;DHT22;50278;47.796;11.968;2023-03-12T02:00:28;-0.17;83.31
64032;DHT22;50278;47.796;11.968;2023-03-12T02:02:58;-0.15;83.45
64032;DHT22;50278;47.796;11.968;2023-03-12T02:05:45;-0.11;82.94
64032;DHT22;50278;47.796;11.968;2023-03-12T02:08:14;-0.09;84.38
64032;DHT22;50278;47.796;11.968;2023-03-12T02:10:40;-0.14;86.21
64032;DHT22;50278;47.796;11.968;2023-03-12T02:13:06;-0.19;85.35
64032;DHT22;50278;47.796;11.968;2023-03-12T02:15:34;-0.27;84.44
64032;DHT22;50278;47.796;11.968;2023-03-12T02:18:04;-0.32;87.15
64032;DHT22;50278;47.796;11.968;2023-03-12T02:23:47;-0.49;88.54
64032;DHT22;50278;47.796;11.968;2023-03-12T02:26:17;-0.51;86.16
64032;DHT22;50278;47.796;11.968;2023-03-12T02:28:44;-0.54;87.34
64032;DHT22;50278;47.796;11.968;2023-03-12T02:31:14;-0.56;86.35
64032;DHT22;50278;47.796;11.968;2023-03-12T02:33:42;-0.67;90.35
64032;DHT22;50278;47.796;11.968;2023-03-12T02:36:08;-0.76;94.20
64032;DHT22;50278;47.796;11.968;2023-03-12T02:41:33;-0.84;92.37
64032;DHT22;50278;47.796;11.968;2023-03-12T02:44:19;-0.88;95.46
64032;DHT22;50278;47.796;11.968;2023-03-12T02:46:51;-0.85;97.10
64032;DHT22;50278;47.796;11.968;2023-03-12T02:49:19;-0.85;96.91
64032;DHT22;50278;47.796;11.968;2023-03-12T02:51:47;-0.91;97.57
64032;DHT22;50278;47.796;11.968;2023-03-12T02:54:15;-0.96;99.19
64032;DHT22;50278;47.796;11.968;2023-03-12T02:56:41;-0.88;103.54
64032;DHT22;50278;47.796;11.968;2023-03-12T02:59:07;-0.83;106.06
64032;DHT22;50278;47.796;11.968;2023-03-12T03:01:36;-0.77;103.47
64032;DHT22;50278;47.796;11.968;2023-03-12T03:04:04;-0.67;102.99
64032;DHT22;50278;47.796;11.968;2023-03-12T03:06:31;-0.66;102.91
64032;DHT22;50278;47.796;11.968;2023-03-12T03:08:57;-0.60;105.39
64032;DHT22;50278;47.796;11.968;2023-03-12T03:11:23;-0.55;101.86
64032;DHT22;50278;47.796;11.968;2023-03-12T03:13:52;-0.50;101.26
64032;DHT22;50278;47.796;11.968;2023-03-12T03:16:19;-0.49;100.15
64032;DHT22;50278;47.796;11.968;2023-03-12T03:18:45;-0.52;98.13
64032;DHT22;50278;47.796;11.968;2023-03-12T03:21:11;-0.49;96.71
64032;DHT22;50278;47.796;11.968;2023-03-12T03:23:43;-0.47;95.35
64032;DHT22;50278;47.796;11.968;2023-03-12T03:26:08;-0.50;96.84
64032;DHT22;50278;47.796;11.968;2023-03-12T03:28:34;-0.46;102.69
64032;DHT22;50278;47.796;11.968;2023-03-12T03:31:00;-0.45;101.50
64032;DHT22;50278;47.796;11.968;2023-03-12T03:33:30;-0.44;98.68
64032;DHT22;50278;47.796;11.968;2023-03-12T03:35:58;-0.43;96.87
64032;DHT22;50278;47.796;11.968;2023-03-12T03:38:26;-0.42;99.19
64032;DHT22;50278;47.796;11.968;2023-03-12T03:40:52;-0.45;100.03
64032;DHT22;50278;47.796;11.968;2023-03-12T03:43:18;-0.43;102.92
64032;DHT22;50278;47.796;11.968;2023-03-12T03:45:44;-0.37;103.18
64032;DHT22;50278;47.796;11.968;2023-03-12T03:48:11;-0.36;103.44
64032;DHT22;50278;47.796;11.968;2023-03-12T03:50:37;-0.38;103.29
64032;DHT22;50278;47.796;11.968;2023-03-12T03:53:04;-0.38;103.85
64032;DHT22;50278;47.796;11.968;2023-03-12T03:55:30;-0.35;104.15
64032;DHT22;50278;47.796;11.968;2023-03-12T03:57:56;-0.30;105.15
64032;DHT22;50278;47.796;11.968;2023-03-12T04:00:22;-0.26;105.27
64032;DHT22;50278;47.796;11.968;2023-03-12T04:02:50;-0.23;104.68
64032;DHT22;50278;47.796;11.968;2023-03-12T04:05:16;-0.19;106.62
64032;DHT22;50278;47.796;11.968;2023-03-12T04:07:44;-0.17;102.18
64032;DHT22;50278;47.796;11.968;2023-03-12T04:10:10;-0.07;104.00
64032;DHT22;50278;47.796;11.968;2023-03-12T04:12:36;-0.03;103.60
64032;DHT22;50278;47.796;11.968;2023-03-12T04:15:02;0.02;98.89
64032;DHT22;50278;47.796;11.968;2023-03-12T04:17:28;0.05;96.56
64032;DHT22;50278;47.796;11.968;2023-03-12T04:19:55;0.06;95.98
64032;DHT22;50278;47.796;11.968;2023-03-12T04:22:21;0.03;93.91
64032;DHT22;50278;47.796;11.968;2023-03-12T04:24:46;0.05;95.15
64032;DHT22;50278;47.796;11.968;2023-03-12T04:27:13;0.06;94.43
64032;DHT22;50278;47.796;11.968;2023-03-12T04:29:38;0.05;93.68
64032;DHT22;50278;47.796;11.968;2023-03-12T04:32:06;0.06;93.23
64032;DHT22;50278;47.796;11.968;2023-03-12T04:34:32;0.05;92.08
64032;DHT22;50278;47.796;11.968;2023-03-12T04:37:02;0.05;91.55
64032;DHT22;50278;47.796;11.968;2023-03-12T04:39:28;0.07;93.82
64032;DHT22;50278;47.796;11.968;2023-03-12T04:41:54;0.08;93.97
64032;DHT22;50278;47.796;11.968;2023-03-12T04:44:20;0.10;93.34
64032;DHT22;50278;47.796;11.968;2023-03-12T04:46:46;0.10;93.17
64032;DHT22;50278;47.796;11.968;2023-03-12T04:49:15;0.16;94.44
64032;DHT22;50278;47.796;11.968;2023-03-12T04:51:41;0.19;96.14
64032;DHT22;50278;47.796;11.968;2023-03-12T04:54:07;0.19;94.85
64032;DHT22;50278;47.796;11.968;2023-03-12T04:56:34;0.18;92.94
64032;DHT22;50278;47.796;11.968;2023-03-12T04:59:00;0.15;89.74
64032;DHT22;50278;47.796;11.968;2023-03-12T05:01:30;0.19;91.08
64032;DHT22;50278;47.796;11.968;2023-03-12T05:03:56;0.14;88.06
64032;DHT22;50278;47.796;11.968;2023-03-12T05:06:23;0.12;87.48
64032;DHT22;50278;47.796;11.968;2023-03-12T05:08:50;0.07;86.45
64032;DHT22;50278;47.796;11.968;2023-03-12T05:11:17;0.12;88.17
64032;DHT22;50278;47.796;11.968;2023-03-12T05:13:42;0.02;84.58
64032;DHT22;50278;47.796;11.968;2023-03-12T05:16:09;0.03;86.74
64032;DHT22;50278;47.796;11.968;2023-03-12T05:18:36;0.14;87.22
64032;DHT22;50278;47.796;11.968;2023-03-12T05:21:05;0.19;87.41
64032;DHT22;50278;47.796;11.968;2023-03-12T05:23:32;0.15;89.73
64032;DHT22;50278;47.796;11.968;2023-03-12T05:25:58;0.13;92.90
64032;DHT22;50278;47.796;11.968;2023-03-12T05:28:24;0.15;92.83
64032;DHT22;50278;47.796;11.968;2023-03-12T05:30:55;0.14;95.63
64032;DHT22;50278;47.796;11.968;2023-03-12T05:33:22;0.14;97.05
64032;DHT22;50278;47.796;11.968;2023-03-12T05:35:48;0.18;98.68
64032;DHT22;50278;47.796;11.968;2023-03-12T05:38:13;0.19;99.12
64032;DHT22;50278;47.796;11.968;2023-03-12T05:40:39;0.20;102.35
64032;DHT22;50278;47.796;11.968;2023-03-12T05:43:04;0.24;103.27
64032;DHT22;50278;47.796;11.968;2023-03-12T05:45:31;0.28;104.72
64032;DHT22;50278;47.796;11.968;2023-03-12T05:47:58;0.33;107.25
64032;DHT22;50278;47.796;11.968;2023-03-12T05:50:25;0.35;109.29
64032;DHT22;50278;47.796;11.968;2023-03-12T05:52:51;0.43;110.67
64032;DHT22;50278;47.796;11.968;2023-03-12T05:55:17;0.44;115.06
64032;DHT22;50278;47.796;11.968;2023-03-12T05:57:43;0.46;117.41
64032;DHT22;50278;47.796;11.968;2023-03-12T06:00:12;0.49;118.99
64032;DHT22;50278;47.796;11.968;2023-03-12T06:02:49;0.58;117.85
64032;DHT22;50278;47.796;11.968;2023-03-12T06:05:15;0.60;118.99
64032;DHT22;50278;47.796;11.968;2023-03-12T06:07:40;0.68;118.99
64032;DHT22;50278;47.796;11.968;2023-03-12T06:10:06;0.72;118.99
64032;DHT22;50278;47.796;11.968;2023-03-12T06:12:32;0.75;118.99
64032;DHT22;50278;47.796;11.968;2023-03-12T06:14:57;0.80;118.99
64032;DHT22;50278;47.796;11.968;2023-03-12T06:17:23;0.86;118.99
64032;DHT22;50278;47.796;11.968;2023-03-12T06:19:52;0.94;118.99
64032;DHT22;50278;47.796;11.968;2023-03-12T06:22:18;0.96;118.99
64032;DHT22;50278;47.796;11.968;2023-03-12T06:24:44;1.03;118.99
64032;DHT22;50278;47.796;11.968;2023-03-12T06:27:14;1.13;118.99
64032;DHT22;50278;47.796;11.968;2023-03-12T06:29:40;1.21;118.99
64032;DHT22;50278;47.796;11.968;2023-03-12T06:32:06;1.32;118.99
64032;DHT22;50278;47.796;11.968;2023-03-12T06:34:32;1.42;118.99
64032;DHT22;50278;47.796;11.968;2023-03-12T06:36:57;1.50;118.99
64032;DHT22;50278;47.796;11.968;2023-03-12T06:39:23;1.49;118.99
64032;DHT22;50278;47.796;11.968;2023-03-12T06:41:49;1.55;118.99
64032;DHT22;50278;47.796;11.968;2023-03-12T06:44:14;1.54;118.99
64032;DHT22;50278;47.796;11.968;2023-03-12T06:46:40;1.55;118.99
64032;DHT22;50278;47.796;11.968;2023-03-12T06:49:06;1.55;118.99
64032;DHT22;50278;47.796;11.968;2023-03-12T06:51:32;1.54;118.99
64032;DHT22;50278;47.796;11.968;2023-03-12T06:53:57;1.63;118.99
64032;DHT22;50278;47.796;11.968;2023-03-12T06:56:25;1.57;118.99
64032;DHT22;50278;47.796;11.968;2023-03-12T06:58:50;1.51;118.99
64032;DHT22;50278;47.796;11.968;2023-03-12T07:01:16;1.54;118.99
64032;DHT22;50278;47.796;11.968;2023-03-12T07:03:42;1.56;118.99
64032;DHT22;50278;47.796;11.968;2023-03-12T07:06:14;1.53;118.99
64032;DHT22;50278;47.796;11.968;2023-03-12T07:08:41;1.67;118.99
64032;DHT22;50278;47.796;11.968;2023-03-12T07:11:07;1.72;118.99
64032;DHT22;50278;47.796;11.968;2023-03-12T07:13:32;1.68;118.99
64032;DHT22;50278;47.796;11.968;2023-03-12T07:15:58;1.64;118.99
64032;DHT22;50278;47.796;11.968;2023-03-12T07:18:23;1.78;118.99
64032;DHT22;50278;47.796;11.968;2023-03-12T07:20:49;1.75;118.99
64032;DHT22;50278;47.796;11.968;2023-03-12T07:23:16;1.73;118.99
64032;DHT22;50278;47.796;11.968;2023-03-12T07:25:42;1.75;118.99
64032;DHT22;50278;47.796;11.968;2023-03-12T07:28:09;1.75;118.99
64032;DHT22;50278;47.796;11.968;2023-03-12T07:30:35;1.69;118.99
64032;DHT22;50278;47.796;11.968;2023-03-12T07:33:05;1.72;118.99
64032;DHT22;50278;47.796;11.968;2023-03-12T07:35:31;1.68;118.99
64032;DHT22;50278;47.796;11.968;2023-03-12T07:37:57;1.68;118.99
64032;DHT22;50278;47.796;11.968;2023-03-12T07:40:23;1.70;118.99
64032;DHT22;50278;47.796;11.968;2023-03-12T07:42:49;1.75;118.99
64032;DHT22;50278;47.796;11.968;2023-03-12T07:45:15;1.73;118.99
64032;DHT22;50278;47.796;11.968;2023-03-12T07:47:40;1.75;118.99
64032;DHT22;50278;47.796;11.968;2023-03-12T07:50:06;1.90;118.99
64032;DHT22;50278;47.796;11.968;2023-03-12T07:52:32;1.98;118.99
64032;DHT22;50278;47.796;11.968;2023-03-12T07:54:57;2.01;118.99
64032;DHT22;50278;47.796;11.968;2023-03-12T07:57:23;2.02;118.99
64032;DHT22;50278;47.796;11.968;2023-03-12T07:59:49;2.23;118.99
64032;DHT22;50278;47.796;11.968;2023-03-12T08:02:14;2.28;118.99
64032;DHT22;50278;47.796;11.968;2023-03-12T08:04:40;2.37;118.99
64032;DHT22;50278;47.796;11.968;2023-03-12T08:07:06;2.53;118.99
64032;DHT22;50278;47.796;11.968;2023-03-12T08:09:31;2.71;118.99
64032;DHT22;50278;47.796;11.968;2023-03-12T08:11:57;2.78;118.99
64032;DHT22;50278;47.796;11.968;2023-03-12T08:14:23;2.68;118.99
64032;DHT22;50278;47.796;11.968;2023-03-12T08:16:48;2.69;118.99
64032;DHT22;50278;47.796;11.968;2023-03-12T08:19:14;2.70;118.99
64032;DHT22;50278;47.796;11.968;2023-03-12T08:21:39;2.83;118.99
64032;DHT22;50278;47.796;11.968;2023-03-12T08:24:05;2.94;118.99
64032;DHT22;50278;47.796;11.968;2023-03-12T08:26:31;2.99;118.99
64032;DHT22;50278;47.796;11.968;2023-03-12T08:28:56;2.99;118.99
64032;DHT22;50278;47.796;11.968;2023-03-12T08:31:25;2.91;118.99
64032;DHT22;50278;47.796;11.968;2023-03-12T08:33:51;2.86;118.99
64032;DHT22;50278;47.796;11.968;2023-03-12T08:36:16;2.94;118.99
64032;DHT22;50278;47.796;11.968;2023-03-12T08:38:42;3.13;118.99
64032;DHT22;50278;47.796;11.968;2023-03-12T08:41:07;3.01;118.99
64032;DHT22;50278;47.796;11.968;2023-03-12T08:43:33;2.97;118.99
64032;DHT22;50278;47.796;11.968;2023-03-12T08:46:00;2.81;118.99
64032;DHT22;50278;47.796;11.968;2023-03-12T08:48:27;2.94;118.99
64032;DHT22;50278;47.796;11.968;2023-03-12T08:51:00;2.99;118.99
64032;DHT22;50278;47.796;11.968;2023-03-12T08:53:29;3.01;118.99
64032;DHT22;50278;47.796;11.968;2023-03-12T08:55:56;3.11;118.99
64032;DHT22;50278;47.796;11.968;2023-03-12T08:58:23;3.11;118.99
64032;DHT22;50278;47.796;11.968;2023-03-12T09:00:52;3.19;118.99
64032;DHT22;50278;47.796;11.968;2023-03-12T09:03:18;3.01;118.99
64032;DHT22;50278;47.796;11.968;2023-03-12T09:05:46;2.59;118.99
64032;DHT22;50278;47.796;11.968;2023-03-12T09:08:12;3.09;118.99
64032;DHT22;50278;47.796;11.968;2023-03-12T09:10:38;3.08;118.99
64032;DHT22;50278;47.796;11.968;2023-03-12T09:13:04;2.78;118.99
64032;DHT22;50278;47.796;11.968;2023-03-12T09:15:30;2.95;118.99
64032;DHT22;50278;47.796;11.968;2023-03-12T09:17:56;2.90;118.99
64032;DHT22;50278;47.796;11.968;2023-03-12T09:20:22;2.81;118.99
64032;DHT22;50278;47.796;11.968;2023-03-12T09:22:48;2.71;118.99
64032;DHT22;50278;47.796;11.968;2023-03-12T09:25:15;2.55;118.99
64032;DHT22;50278;47.796;11.968;2023-03-12T09:27:46;2.49;118.99
64032;DHT22;50278;47.796;11.968;2023-03-12T09:30:17;2.62;118.99
64032;DHT22;50278;47.796;11.968;2023-03-12T09:32:44;2.41;118.99
64032;DHT22;50278;47.796;11.968;2023-03-12T09:35:11;2.32;118.99
64032;DHT22;50278;47.796;11.968;2023-03-12T09:37:37;2.13;118.99
64032;DHT22;50278;47.796;11.968;2023-03-12T09:40:04;2.16;118.99
64032;DHT22;50278;47.796;11.968;2023-03-12T09:42:41;2.19;118.99
64032;DHT22;50278;47.796;11.968;2023-03-12T09:45:17;2.26;118.99
64032;DHT22;50278;47.796;11.968;2023-03-12T09:47:51;2.26;118.99
64032;DHT22;50278;47.796;11.968;2023-03-12T09:50:22;2.24;118.99
64032;DHT22;50278;47.796;11.968;2023-03-12T09:52:52;2.21;118.99
64032;DHT22;50278;47.796;11.968;2023-03-12T09:55:20;2.39;118.99
64032;DHT22;50278;47.796;11.968;2023-03-12T09:57:48;2.34;118.99
64032;DHT22;50278;47.796;11.968;2023-03-12T10:00:17;2.08;118.99
64032;DHT22;50278;47.796;11.968;2023-03-12T10:02:54;2.16;118.99
64032;DHT22;50278;47.796;11.968;2023-03-12T10:22:36;2.22;118.99
64032;DHT22;50278;47.796;11.968;2023-03-12T10:25:15;2.34;118.99
64032;DHT22;50278;47.796;11.968;2023-03-12T10:27:42;2.22;118.99
64032;DHT22;50278;47.796;11.968;2023-03-12T10:30:27;2.11;118.99
64032;DHT22;50278;47.796;11.968;2023-03-12T10:32:58;2.02;118.99
64032;DHT22;50278;47.796;11.968;2023-03-12T10:35:27;2.26;118.99
64032;DHT22;50278;47.796;11.968;2023-03-12T10:38:02;2.14;118.99
64032;DHT22;50278;47.796;11.968;2023-03-12T10:40:33;2.49;118.99
64032;DHT22;50278;47.796;11.968;2023-03-12T10:42:59;2.34;118.99
64032;DHT22;50278;47.796;11.968;2023-03-12T10:48:18;2.29;118.99
64032;DHT22;50278;47.796;11.968;2023-03-12T10:51:00;2.50;118.99
64032;DHT22;50278;47.796;11.968;2023-03-12T10:53:27;2.59;118.99
64032;DHT22;50278;47.796;11.968;2023-03-12T10:55:58;2.43;118.99
64032;DHT22;50278;47.796;11.968;2023-03-12T10:58:25;2.45;118.99
64032;DHT22;50278;47.796;11.968;2023-03-12T11:00:58;2.51;118.99
64032;DHT22;50278;47.796;11.968;2023-03-12T11:03:25;2.68;118.99
64032;DHT22;50278;47.796;11.968;2023-03-12T11:05:54;2.53;118.99
64032;DHT22;50278;47.796;11.968;2023-03-12T11:10:46;2.97;118.99
64032;DHT22;50278;47.796;11.968;2023-03-12T11:13:32;3.15;118.99
64032;DHT22;50278;47.796;11.968;2023-03-12T11:16:22;3.48;118.99
64032;DHT22;50278;47.796;11.968;2023-03-12T11:18:59;3.70;118.99
64032;DHT22;50278;47.796;11.968;2023-03-12T11:21:27;4.07;118.99
64032;DHT22;50278;47.796;11.968;2023-03-12T11:26:30;4.44;118.99
64032;DHT22;50278;47.796;11.968;2023-03-12T11:31:43;5.13;118.99
64032;DHT22;50278;47.796;11.968;2023-03-12T11:34:20;5.57;118.99
64032;DHT22;50278;47.796;11.968;2023-03-12T11:39:57;6.30;118.99
64032;DHT22;50278;47.796;11.968;2023-03-12T11:51:19;6.45;118.99
64032;DHT22;50278;47.796;11.968;2023-03-12T11:56:48;7.71;118.99
64032;DHT22;50278;47.796;11.968;2023-03-12T12:02:03;7.62;118.99
64032;DHT22;50278;47.796;11.968;2023-03-12T12:13:04;7.78;118.99
64032;DHT22;50278;47.796;11.968;2023-03-12T12:15:33;8.23;118.99
64032;DHT22;50278;47.796;11.968;2023-03-12T12:21:20;8.05;118.99
64032;DHT22;50278;47.796;11.968;2023-03-12T12:32:11;7.75;118.99
64032;DHT22;50278;47.796;11.968;2023-03-12T12:35:04;7.89;118.99
64032;DHT22;50278;47.796;11.968;2023-03-12T12:40:53;7.71;118.99
64032;DHT22;50278;47.796;11.968;2023-03-12T12:43:25;7.93;118.99
64032;DHT22;50278;47.796;11.968;2023-03-12T12:46:01;7.53;118.99
64032;DHT22;50278;47.796;11.968;2023-03-12T12:48:35;7.73;118.99
64032;DHT22;50278;47.796;11.968;2023-03-12T12:51:03;7.94;118.99
64032;DHT22;50278;47.796;11.968;2023-03-12T12:56:22;8.06;118.99
64032;DHT22;50278;47.796;11.968;2023-03-12T12:58:59;8.42;115.28
64032;DHT22;50278;47.796;11.968;2023-03-12T13:01:29;8.73;111.65
64032;DHT22;50278;47.796;11.968;2023-03-12T13:04:05;8.61;110.39
64032;DHT22;50278;47.796;11.968;2023-03-12T13:06:53;8.45;109.99
64032;DHT22;50278;47.796;11.968;2023-03-12T13:09:20;8.13;110.81
64032;DHT22;50278;47.796;11.968;2023-03-12T13:11:46;8.37;112.28
64032;DHT22;50278;47.796;11.968;2023-03-12T13:14:34;8.28;115.38
64032;DHT22;50278;47.796;11.968;2023-03-12T13:17:06;8.45;111.23
64032;DHT22;50278;47.796;11.968;2023-03-12T13:19:37;8.58;111.11
64032;DHT22;50278;47.796;11.968;2023-03-12T13:24:45;8.62;108.33
64032;DHT22;50278;47.796;11.968;2023-03-12T13:27:19;8.37;110.30
64032;DHT22;50278;47.796;11.968;2023-03-12T13:29:47;8.27;114.86
64032;DHT22;50278;47.796;11.968;2023-03-12T13:43:12;8.43;118.99
64032;DHT22;50278;47.796;11.968;2023-03-12T13:48:20;8.29;117.70
64032;DHT22;50278;47.796;11.968;2023-03-12T13:50:52;8.15;118.99
64032;DHT22;50278;47.796;11.968;2023-03-12T13:53:23;8.34;118.99
64032;DHT22;50278;47.796;11.968;2023-03-12T13:56:15;8.58;117.61
64032;DHT22;50278;47.796;11.968;2023-03-12T13:58:55;8.72;117.96
64032;DHT22;50278;47.796;11.968;2023-03-12T14:01:25;8.70;118.32
64032;DHT22;50278;47.796;11.968;2023-03-12T14:04:00;8.61;115.57
64032;DHT22;50278;47.796;11.968;2023-03-12T14:06:28;8.78;115.63
64032;DHT22;50278;47.796;11.968;2023-03-12T14:09:41;8.61;117.58
64032;DHT22;50278;47.796;11.968;2023-03-12T14:15:20;8.42;118.99
64032;DHT22;50278;47.796;11.968;2023-03-12T14:17:54;8.31;118.99
64032;DHT22;50278;47.796;11.968;2023-03-12T14:20:22;8.26;118.99
64032;DHT22;50278;47.796;11.968;2023-03-12T14:22:51;8.26;118.99
64032;DHT22;50278;47.796;11.968;2023-03-12T14:25:50;8.29;118.99
64032;DHT22;50278;47.796;11.968;2023-03-12T14:28:22;8.29;118.99
64032;DHT22;50278;47.796;11.968;2023-03-12T14:33:25;8.42;118.99
64032;DHT22;50278;47.796;11.968;2023-03-12T14:36:08;8.37;118.99
64032;DHT22;50278;47.796;11.968;2023-03-12T14:38:39;8.60;118.99
64032;DHT22;50278;47.796;11.968;2023-03-12T14:41:15;8.97;118.99
64032;DHT22;50278;47.796;11.968;2023-03-12T14:43:42;9.56;118.99
64032;DHT22;50278;47.796;11.968;2023-03-12T14:46:18;9.91;113.36
64032;DHT22;50278;47.796;11.968;2023-03-12T14:48:47;10.04;114.38
64032;DHT22;50278;47.796;11.968;2023-03-12T14:51:22;10.07;114.48
64032;DHT22;50278;47.796;11.968;2023-03-12T14:53:48;10.19;116.51
64032;DHT22;50278;47.796;11.968;2023-03-12T14:58:52;10.79;94.91
64032;DHT22;50278;47.796;11.968;2023-03-12T15:01:21;10.71;93.57
64032;DHT22;50278;47.796;11.968;2023-03-12T15:04:11;10.22;94.69
64032;DHT22;50278;47.796;11.968;2023-03-12T15:06:44;10.04;97.02
64032;DHT22;50278;47.796;11.968;2023-03-12T15:09:17;10.01;95.87
64032;DHT22;50278;47.796;11.968;2023-03-12T15:11:43;9.78;91.00
64032;DHT22;50278;47.796;11.968;2023-03-12T15:14:15;9.53;95.28
64032;DHT22;50278;47.796;11.968;2023-03-12T15:16:41;9.42;93.98
64032;DHT22;50278;47.796;11.968;2023-03-12T15:19:20;9.34;95.17
64032;DHT22;50278;47.796;11.968;2023-03-12T15:21:47;9.18;94.80
64032;DHT22;50278;47.796;11.968;2023-03-12T15:24:14;9.14;92.07
64032;DHT22;50278;47.796;11.968;2023-03-12T15:26:40;9.14;95.16
64032;DHT22;50278;47.796;11.968;2023-03-12T15:29:19;9.09;94.30
64032;DHT22;50278;47.796;11.968;2023-03-12T15:31:59;9.05;90.20
64032;DHT22;50278;47.796;11.968;2023-03-12T15:39:50;8.62;98.32
64032;DHT22;50278;47.796;11.968;2023-03-12T15:42:19;8.56;100.38
64032;DHT22;50278;47.796;11.968;2023-03-12T15:44:47;8.58;106.18
64032;DHT22;50278;47.796;11.968;2023-03-12T15:47:18;8.47;105.79
64032;DHT22;50278;47.796;11.968;2023-03-12T15:50:10;8.31;112.69
64032;DHT22;50278;47.796;11.968;2023-03-12T15:52:37;8.32;110.15
64032;DHT22;50278;47.796;11.968;2023-03-12T15:57:51;8.36;105.82
64032;DHT22;50278;47.796;11.968;2023-03-12T16:02:55;8.51;105.16
64032;DHT22;50278;47.796;11.968;2023-03-12T16:05:30;8.51;106.94
64032;DHT22;50278;47.796;11.968;2023-03-12T16:08:00;8.53;105.85
64032;DHT22;50278;47.796;11.968;2023-03-12T16:10:26;8.49;100.22
64032;DHT22;50278;47.796;11.968;2023-03-12T16:13:00;8.47;99.72
64032;DHT22;50278;47.796;11.968;2023-03-12T16:15:30;8.49;98.23
64032;DHT22;50278;47.796;11.968;2023-03-12T16:17:56;8.63;93.92
64032;DHT22;50278;47.796;11.968;2023-03-12T16:20:21;8.66;93.98
64032;DHT22;50278;47.796;11.968;2023-03-12T16:22:47;8.60;92.69
64032;DHT22;50278;47.796;11.968;2023-03-12T16:25:13;8.58;92.96
64032;DHT22;50278;47.796;11.968;2023-03-12T16:27:45;8.59;92.75
64032;DHT22;50278;47.796;11.968;2023-03-12T16:30:21;8.58;91.85
64032;DHT22;50278;47.796;11.968;2023-03-12T16:32:47;8.66;90.43
64032;DHT22;50278;47.796;11.968;2023-03-12T16:35:15;8.50;93.14
64032;DHT22;50278;47.796;11.968;2023-03-12T16:37:42;8.53;92.75
64032;DHT22;50278;47.796;11.968;2023-03-12T16:40:08;8.43;94.27
64032;DHT22;50278;47.796;11.968;2023-03-12T16:42:35;8.39;92.58
64032;DHT22;50278;47.796;11.968;2023-03-12T16:45:01;8.45;90.42
64032;DHT22;50278;47.796;11.968;2023-03-12T16:47:27;8.70;84.84
64032;DHT22;50278;47.796;11.968;2023-03-12T16:49:54;8.67;86.03
64032;DHT22;50278;47.796;11.968;2023-03-12T16:52:21;8.64;87.32
64032;DHT22;50278;47.796;11.968;2023-03-12T16:54:47;8.56;88.13
64032;DHT22;50278;47.796;11.968;2023-03-12T16:57:25;8.50;87.74
64032;DHT22;50278;47.796;11.968;2023-03-12T16:59:52;8.72;82.28
64032;DHT22;50278;47.796;11.968;2023-03-12T17:02:18;8.61;84.20
64032;DHT22;50278;47.796;11.968;2023-03-12T17:04:45;8.64;81.11
64032;DHT22;50278;47.796;11.968;2023-03-12T17:07:13;8.53;84.58
64032;DHT22;50278;47.796;11.968;2023-03-12T17:09:38;8.50;86.94
64032;DHT22;50278;47.796;11.968;2023-03-12T17:12:17;8.35;89.40
64032;DHT22;50278;47.796;11.968;2023-03-12T17:14:43;8.15;92.53
64032;DHT22;50278;47.796;11.968;2023-03-12T17:17:09;8.14;95.14
64032;DHT22;50278;47.796;11.968;2023-03-12T17:19:34;7.94;102.15
64032;DHT22;50278;47.796;11.968;2023-03-12T17:22:00;7.87;105.40